createdAt,value
2024-02-29T13:27:05.621Z,14.49
2024-02-29T13:28:04.487Z,14.47
2024-02-29T13:29:04.777Z,14.20
2024-02-29T13:30:04.500Z,14.22
2024-02-29T13:31:05.346Z,14.46
2024-02-29T13:32:05.473Z,14.55
2024-02-29T13:33:04.672Z,14.46
2024-02-29T13:34:05.223Z,14.51
2024-02-29T13:35:04.774Z,14.34
2024-02-29T13:36:04.731Z,14.35
2024-02-29T13:37:04.799Z,14.37
2024-02-29T13:38:04.727Z,14.56
2024-02-29T13:39:05.322Z,14.76
2024-02-29T13:40:04.857Z,14.94
2024-02-29T13:41:04.835Z,15.00
2024-02-29T13:42:04.767Z,15.07
2024-02-29T13:43:05.417Z,15.16
2024-02-29T13:44:04.828Z,15.21
2024-02-29T13:45:04.808Z,15.34
2024-02-29T13:46:04.872Z,15.44
2024-02-29T13:47:05.066Z,15.55
2024-02-29T13:48:05.259Z,15.58
2024-02-29T13:49:20.868Z,15.63
2024-02-29T13:50:05.953Z,15.71
2024-02-29T13:51:04.975Z,15.84
2024-02-29T13:52:05.481Z,15.95
2024-02-29T13:53:04.858Z,15.83
2024-02-29T13:54:04.968Z,15.71
2024-02-29T13:55:04.988Z,15.78
2024-02-29T13:56:05.272Z,15.75
2024-02-29T13:57:04.870Z,15.72
2024-02-29T13:58:05.009Z,15.69
2024-02-29T13:59:04.792Z,15.66
2024-02-29T14:00:04.937Z,15.80
2024-02-29T14:01:05.938Z,15.80
2024-02-29T14:02:04.977Z,15.79
2024-02-29T14:03:04.897Z,15.92
2024-02-29T14:04:04.896Z,15.82
2024-02-29T14:05:05.109Z,15.44
2024-02-29T14:06:05.127Z,15.58
2024-02-29T14:07:05.311Z,15.82
2024-02-29T14:08:04.968Z,15.94
2024-02-29T14:09:04.994Z,16.07
2024-02-29T14:10:05.175Z,16.21
2024-02-29T14:11:05.712Z,16.33
2024-02-29T14:12:05.166Z,16.50
2024-02-29T14:13:05.147Z,16.65
2024-02-29T14:14:05.599Z,16.80
2024-02-29T14:15:05.291Z,16.95
2024-02-29T14:16:05.459Z,17.05
2024-02-29T14:17:06.462Z,17.15
2024-02-29T14:18:05.493Z,17.20
2024-02-29T14:19:05.469Z,17.24
2024-02-29T14:20:05.629Z,17.22
2024-02-29T14:21:05.537Z,17.06
2024-02-29T14:22:05.535Z,16.83
2024-02-29T14:23:05.766Z,16.61
2024-02-29T14:24:05.566Z,16.68
2024-02-29T14:25:05.893Z,16.70
2024-02-29T14:26:05.906Z,16.81
2024-02-29T14:27:06.077Z,16.93
2024-02-29T14:28:06.273Z,17.07
2024-02-29T14:29:06.592Z,17.21
2024-02-29T14:30:06.171Z,17.20
2024-02-29T14:31:07.286Z,17.25
2024-02-29T14:32:06.872Z,17.36
2024-02-29T14:33:06.110Z,17.43
2024-02-29T14:34:06.019Z,17.31
2024-02-29T14:35:06.151Z,17.13
2024-02-29T14:36:06.057Z,17.15
2024-02-29T14:37:06.276Z,17.17
2024-02-29T14:38:05.982Z,17.16
2024-02-29T14:39:05.816Z,17.08
2024-02-29T14:40:06.196Z,16.94
2024-02-29T14:41:06.091Z,16.81
2024-02-29T14:42:06.140Z,16.88
2024-02-29T14:43:06.376Z,17.01
2024-02-29T14:44:05.917Z,17.04
2024-02-29T14:45:05.930Z,16.56
2024-02-29T14:46:06.196Z,16.48
2024-02-29T14:47:05.946Z,16.59
2024-02-29T14:48:05.990Z,16.73
2024-02-29T14:49:06.009Z,16.71
2024-02-29T14:50:05.916Z,16.55
2024-02-29T14:51:06.156Z,16.56
2024-02-29T14:52:06.079Z,16.57
2024-02-29T14:53:06.139Z,16.67
2024-02-29T14:54:06.072Z,16.79
2024-02-29T14:55:06.135Z,16.86
2024-02-29T14:56:06.095Z,16.88
2024-02-29T14:57:06.189Z,16.71
2024-02-29T14:58:06.100Z,16.71
2024-02-29T14:59:06.254Z,16.62
2024-02-29T15:00:06.090Z,16.34
2024-02-29T15:01:06.081Z,16.42
2024-02-29T15:02:06.101Z,16.53
2024-02-29T15:03:06.208Z,16.53
2024-02-29T15:04:07.205Z,16.52
2024-02-29T15:05:07.023Z,16.56
2024-02-29T15:06:06.154Z,16.71
2024-02-29T15:07:06.174Z,16.86
2024-02-29T15:08:06.161Z,16.96
2024-02-29T15:09:06.838Z,17.03
2024-02-29T15:10:07.571Z,17.13
2024-02-29T15:11:06.687Z,17.16
2024-02-29T15:12:07.337Z,17.12
2024-02-29T15:13:06.653Z,16.95
2024-02-29T15:14:06.619Z,16.77
2024-02-29T15:15:06.671Z,16.80
2024-02-29T15:16:06.615Z,16.86
2024-02-29T15:17:06.489Z,16.80
2024-02-29T15:18:06.663Z,16.64
2024-02-29T15:19:06.780Z,16.65
2024-02-29T15:20:06.825Z,16.69
2024-02-29T15:21:06.686Z,16.79
2024-02-29T15:22:06.704Z,16.94
2024-02-29T15:23:06.609Z,16.97
2024-02-29T15:24:06.726Z,16.88
2024-02-29T15:25:06.626Z,16.80
2024-02-29T15:26:06.727Z,16.82
2024-02-29T15:27:06.878Z,16.92
2024-02-29T15:28:06.925Z,17.01
2024-02-29T15:29:06.608Z,17.01
2024-02-29T15:30:07.266Z,17.08
2024-02-29T15:31:07.146Z,17.15
2024-02-29T15:32:07.226Z,17.20
2024-02-29T15:33:06.997Z,17.22
2024-02-29T15:34:07.067Z,17.24
2024-02-29T15:35:06.995Z,17.25
2024-02-29T15:36:07.599Z,17.24
2024-02-29T15:37:08.003Z,17.24
2024-02-29T15:38:07.080Z,17.28
2024-02-29T15:39:07.113Z,17.22
2024-02-29T15:40:07.272Z,17.24
2024-02-29T15:41:07.289Z,17.22
2024-02-29T15:42:07.311Z,17.24
2024-02-29T15:43:07.049Z,17.27
2024-02-29T15:44:07.151Z,17.21
2024-02-29T15:45:07.348Z,17.17
2024-02-29T15:46:07.301Z,17.08
2024-02-29T15:47:07.227Z,17.08
2024-02-29T15:48:07.670Z,17.10
2024-02-29T15:49:07.317Z,17.04
2024-02-29T15:50:07.258Z,17.04
2024-02-29T15:51:07.202Z,17.00
2024-02-29T15:52:07.499Z,17.10
2024-02-29T15:53:07.422Z,17.14
2024-02-29T15:54:07.229Z,16.88
2024-02-29T15:55:07.326Z,16.92
2024-02-29T15:56:07.397Z,16.84
2024-02-29T15:57:07.351Z,16.79
2024-02-29T15:58:08.312Z,16.84
2024-02-29T15:59:07.239Z,16.90
2024-02-29T16:00:07.445Z,16.92
2024-02-29T16:01:08.258Z,16.86
2024-02-29T16:02:07.512Z,16.87
2024-02-29T16:03:09.081Z,16.98
2024-02-29T16:04:08.298Z,16.88
2024-02-29T16:05:07.831Z,16.85
2024-02-29T16:06:07.766Z,16.82
2024-02-29T16:07:07.884Z,16.84
2024-02-29T16:08:07.733Z,16.75
2024-02-29T16:09:08.411Z,16.70
2024-02-29T16:10:08.589Z,16.72
2024-02-29T16:11:07.907Z,16.78
2024-02-29T16:12:07.968Z,16.76
2024-02-29T16:13:08.040Z,16.83
2024-02-29T16:14:07.969Z,16.84
2024-02-29T16:15:07.764Z,16.85
2024-02-29T16:16:08.845Z,16.83
2024-02-29T16:17:07.674Z,16.90
2024-02-29T16:18:07.816Z,16.88
2024-02-29T16:19:07.799Z,16.86
2024-02-29T16:20:07.791Z,16.78
2024-02-29T16:21:08.025Z,16.75
2024-02-29T16:22:08.009Z,16.74
2024-02-29T16:23:07.957Z,16.72
2024-02-29T16:24:08.667Z,16.65
2024-02-29T16:25:08.047Z,16.73
2024-02-29T16:26:08.210Z,16.78
2024-02-29T16:27:08.133Z,16.68
2024-02-29T16:28:08.989Z,16.62
2024-02-29T16:29:08.411Z,16.58
2024-02-29T16:30:08.315Z,16.62
2024-02-29T16:31:08.396Z,16.65
2024-02-29T16:32:08.363Z,16.62
2024-02-29T16:33:08.688Z,16.52
2024-02-29T16:34:08.619Z,16.56
2024-02-29T16:35:08.304Z,16.58
2024-02-29T16:36:08.479Z,16.63
2024-02-29T16:37:08.482Z,16.65
2024-02-29T16:38:08.496Z,16.64
2024-02-29T16:39:08.327Z,16.56
2024-02-29T16:40:08.509Z,16.47
2024-02-29T16:41:08.714Z,16.49
2024-02-29T16:42:08.436Z,16.51
2024-02-29T16:43:08.742Z,16.58
2024-02-29T16:44:08.686Z,16.45
2024-02-29T16:45:08.541Z,16.42
2024-02-29T16:46:10.512Z,16.36
2024-02-29T16:47:09.120Z,16.15
2024-02-29T16:48:08.606Z,15.97
2024-02-29T16:49:08.694Z,15.91
2024-02-29T16:50:08.773Z,15.99
2024-02-29T16:51:08.700Z,16.01
2024-02-29T16:52:08.568Z,16.06
2024-02-29T16:53:08.538Z,16.13
2024-02-29T16:54:08.702Z,16.11
2024-02-29T16:55:08.686Z,16.14
2024-02-29T16:56:08.776Z,16.15
2024-02-29T16:57:08.826Z,16.18
2024-02-29T16:58:08.829Z,16.21
2024-02-29T16:59:08.740Z,16.16
2024-02-29T17:00:08.755Z,16.16
2024-02-29T17:01:08.966Z,16.12
2024-02-29T17:02:08.865Z,16.10
2024-02-29T17:03:08.794Z,16.15
2024-02-29T17:04:09.156Z,16.18
2024-02-29T17:05:09.051Z,16.07
2024-02-29T17:06:08.968Z,16.05
2024-02-29T17:07:09.084Z,16.12
2024-02-29T17:08:09.129Z,16.13
2024-02-29T17:09:09.287Z,16.08
2024-02-29T17:10:09.269Z,16.05
2024-02-29T17:11:09.406Z,16.05
2024-02-29T17:12:09.477Z,15.98
2024-02-29T17:13:09.437Z,15.99
2024-02-29T17:14:09.599Z,16.02
2024-02-29T17:15:09.383Z,15.99
2024-02-29T17:16:09.487Z,16.00
2024-02-29T17:17:09.525Z,16.06
2024-02-29T17:18:09.525Z,16.10
2024-02-29T17:19:09.625Z,16.10
2024-02-29T17:20:09.445Z,15.97
2024-02-29T17:21:09.399Z,15.96
2024-02-29T17:22:09.652Z,16.05
2024-02-29T17:23:09.600Z,16.07
2024-02-29T17:24:09.730Z,16.08
2024-02-29T17:25:09.631Z,15.96
2024-02-29T17:26:09.631Z,15.92
2024-02-29T17:27:09.711Z,15.91
2024-02-29T17:28:09.580Z,15.80
2024-02-29T17:29:09.790Z,15.53
2024-02-29T17:30:09.810Z,15.60
2024-02-29T17:31:10.087Z,15.58
2024-02-29T17:32:09.864Z,15.60
2024-02-29T17:33:09.716Z,15.58
2024-02-29T17:34:09.836Z,15.42
2024-02-29T17:35:09.734Z,15.36
2024-02-29T17:36:10.001Z,15.44
2024-02-29T17:37:09.698Z,15.47
2024-02-29T17:38:09.706Z,15.51
2024-02-29T17:39:09.767Z,15.52
2024-02-29T17:40:09.808Z,15.54
2024-02-29T17:41:09.761Z,15.60
2024-02-29T17:42:09.928Z,15.49
2024-02-29T17:43:09.971Z,15.35
2024-02-29T17:44:09.939Z,15.15
2024-02-29T17:45:09.864Z,15.16
2024-02-29T17:46:10.165Z,15.21
2024-02-29T17:47:10.037Z,15.25
2024-02-29T17:48:10.122Z,15.34
2024-02-29T17:49:10.194Z,15.24
2024-02-29T17:50:10.128Z,15.00
2024-02-29T17:51:10.095Z,14.87
2024-02-29T17:52:10.272Z,14.67
2024-02-29T17:53:10.378Z,14.56
2024-02-29T17:54:10.284Z,14.65
2024-02-29T17:55:10.500Z,14.73
2024-02-29T17:56:10.530Z,14.81
2024-02-29T17:57:10.338Z,14.86
2024-02-29T17:58:10.418Z,14.89
2024-02-29T17:59:10.659Z,14.86
2024-02-29T18:00:10.562Z,14.83
2024-02-29T18:01:10.632Z,14.63
2024-02-29T18:02:10.696Z,14.56
2024-02-29T18:03:10.552Z,14.46
2024-02-29T18:04:10.610Z,14.41
2024-02-29T18:05:10.558Z,14.47
2024-02-29T18:06:10.556Z,14.55
2024-02-29T18:07:10.615Z,14.52
2024-02-29T18:08:10.920Z,14.50
2024-02-29T18:09:10.792Z,14.22
2024-02-29T18:10:10.892Z,14.05
2024-02-29T18:11:10.707Z,14.09
2024-02-29T18:12:10.767Z,14.11
2024-02-29T18:13:11.223Z,14.07
2024-02-29T18:14:10.743Z,14.05
2024-02-29T18:15:10.682Z,13.94
2024-02-29T18:16:10.799Z,13.80
2024-02-29T18:17:10.778Z,13.87
2024-02-29T18:18:10.856Z,13.91
2024-02-29T18:19:10.979Z,13.71
2024-02-29T18:20:10.906Z,13.65
2024-02-29T18:21:10.821Z,13.44
2024-02-29T18:22:10.801Z,13.37
2024-02-29T18:23:10.758Z,13.35
2024-02-29T18:24:10.697Z,13.45
2024-02-29T18:25:10.992Z,13.33
2024-02-29T18:26:10.927Z,13.33
2024-02-29T18:27:10.988Z,13.24
2024-02-29T18:28:11.030Z,13.14
2024-02-29T18:29:10.988Z,13.08
2024-02-29T18:30:11.189Z,13.08
2024-02-29T18:31:11.131Z,13.12
2024-02-29T18:32:11.081Z,12.96
2024-02-29T18:33:11.272Z,13.01
2024-02-29T18:34:11.221Z,13.12
2024-02-29T18:35:11.142Z,13.20
2024-02-29T18:36:11.249Z,13.12
2024-02-29T18:37:11.336Z,13.12
2024-02-29T18:38:11.378Z,12.95
2024-02-29T18:39:13.936Z,12.75
2024-02-29T18:40:11.516Z,12.64
2024-02-29T18:41:11.600Z,12.58
2024-02-29T18:42:11.412Z,12.66
2024-02-29T18:43:11.393Z,12.72
2024-02-29T18:44:11.392Z,12.70
2024-02-29T18:45:11.286Z,12.64
2024-02-29T18:46:11.363Z,12.62
2024-02-29T18:47:11.397Z,12.59
2024-02-29T18:48:11.374Z,12.63
2024-02-29T18:49:11.573Z,12.50
2024-02-29T18:50:11.430Z,12.50
2024-02-29T18:51:11.462Z,12.40
2024-02-29T18:52:11.441Z,12.43
2024-02-29T18:53:11.424Z,12.51
2024-02-29T18:54:11.451Z,12.42
2024-02-29T18:55:11.532Z,12.22
2024-02-29T18:56:11.561Z,12.06
2024-02-29T18:57:11.610Z,12.15
2024-02-29T18:58:11.598Z,12.26
2024-02-29T18:59:11.429Z,12.32
2024-02-29T19:00:11.520Z,12.18
2024-02-29T19:01:11.580Z,11.99
2024-02-29T19:02:11.704Z,11.93
2024-02-29T19:03:11.508Z,11.95
2024-02-29T19:04:11.532Z,12.05
2024-02-29T19:05:11.631Z,12.13
2024-02-29T19:06:11.655Z,12.15
2024-02-29T19:07:11.600Z,12.07
2024-02-29T19:08:11.631Z,12.06
2024-02-29T19:09:11.565Z,12.11
2024-02-29T19:10:11.588Z,12.16
2024-02-29T19:11:11.682Z,12.21
2024-02-29T19:12:11.784Z,12.21
2024-02-29T19:13:11.709Z,12.16
2024-02-29T19:14:11.619Z,12.23
2024-02-29T19:15:11.680Z,12.27
2024-02-29T19:16:11.695Z,12.35
2024-02-29T19:17:11.619Z,12.37
2024-02-29T19:18:11.619Z,12.37
2024-02-29T19:19:11.818Z,12.14
2024-02-29T19:20:11.903Z,12.02
2024-02-29T19:21:12.745Z,12.01
2024-02-29T19:22:11.710Z,11.98
2024-02-29T19:23:11.846Z,11.93
2024-02-29T19:24:11.921Z,11.91
2024-02-29T19:25:12.000Z,11.81
2024-02-29T19:26:11.976Z,11.77
2024-02-29T19:27:12.019Z,11.78
2024-02-29T19:28:12.128Z,11.81
2024-02-29T19:29:12.003Z,11.88
2024-02-29T19:30:12.109Z,11.90
2024-02-29T19:31:12.120Z,11.92
2024-02-29T19:32:12.142Z,11.87
2024-02-29T19:33:12.181Z,11.87
2024-02-29T19:34:12.282Z,11.88
2024-02-29T19:35:12.265Z,11.94
2024-02-29T19:36:12.291Z,11.98
2024-02-29T19:37:12.300Z,12.06
2024-02-29T19:38:12.246Z,12.07
2024-02-29T19:39:12.377Z,12.00
2024-02-29T19:40:12.408Z,12.04
2024-02-29T19:41:12.271Z,12.06
2024-02-29T19:42:12.311Z,12.04
2024-02-29T19:43:12.361Z,12.01
2024-02-29T19:44:12.385Z,12.01
2024-02-29T19:45:12.424Z,11.89
2024-02-29T19:46:12.443Z,11.62
2024-02-29T19:47:12.840Z,11.61
2024-02-29T19:48:12.591Z,11.54
2024-02-29T19:49:12.669Z,11.56
2024-02-29T19:50:12.652Z,11.57
2024-02-29T19:51:12.572Z,11.64
2024-02-29T19:52:12.667Z,11.73
2024-02-29T19:53:12.668Z,11.78
2024-02-29T19:54:12.785Z,11.56
2024-02-29T19:55:12.880Z,11.55
2024-02-29T19:56:12.718Z,11.56
2024-02-29T19:57:12.817Z,11.39
2024-02-29T19:58:12.883Z,11.31
2024-02-29T19:59:12.953Z,11.36
2024-02-29T20:00:12.841Z,11.30
2024-02-29T20:01:12.970Z,11.28
2024-02-29T20:02:12.957Z,11.33
2024-02-29T20:03:12.911Z,11.41
2024-02-29T20:04:12.810Z,11.40
2024-02-29T20:05:12.787Z,11.37
2024-02-29T20:06:12.853Z,11.35
2024-02-29T20:07:12.855Z,11.34
2024-02-29T20:08:12.726Z,11.36
2024-02-29T20:09:12.772Z,11.34
2024-02-29T20:10:12.901Z,11.29
2024-02-29T20:11:12.963Z,11.36
2024-02-29T20:12:14.821Z,11.44
2024-02-29T20:13:13.064Z,11.40
2024-02-29T20:14:12.969Z,11.40
2024-02-29T20:15:15.675Z,11.30
2024-02-29T20:16:13.170Z,11.18
2024-02-29T20:17:13.166Z,11.10
2024-02-29T20:18:13.078Z,11.13
2024-02-29T20:19:15.187Z,11.13
2024-02-29T20:20:13.072Z,11.22
2024-02-29T20:21:13.062Z,11.23
2024-02-29T20:22:13.109Z,11.31
2024-02-29T20:23:13.146Z,11.30
2024-02-29T20:24:13.110Z,11.21
2024-02-29T20:25:13.670Z,11.16
2024-02-29T20:26:13.092Z,11.21
2024-02-29T20:27:13.117Z,11.15
2024-02-29T20:28:13.173Z,11.13
2024-02-29T20:29:13.115Z,11.04
2024-02-29T20:30:13.038Z,10.98
2024-02-29T20:31:13.143Z,11.05
2024-02-29T20:32:13.141Z,10.92
2024-02-29T20:33:13.185Z,10.86
2024-02-29T20:34:13.938Z,10.91
2024-02-29T20:35:13.060Z,10.99
2024-02-29T20:36:13.088Z,11.03
2024-02-29T20:37:13.118Z,10.96
2024-02-29T20:38:13.065Z,10.96
2024-02-29T20:39:13.152Z,10.77
2024-02-29T20:40:13.174Z,10.77
2024-02-29T20:41:13.064Z,10.85
2024-02-29T20:42:13.244Z,10.91
2024-02-29T20:43:13.174Z,10.99
2024-02-29T20:44:13.129Z,10.92
2024-02-29T20:45:16.195Z,10.73
2024-02-29T20:46:13.198Z,10.57
2024-02-29T20:47:13.151Z,10.51
2024-02-29T20:48:14.841Z,10.47
2024-02-29T20:49:13.012Z,10.48
2024-02-29T20:50:13.164Z,10.37
2024-02-29T20:51:13.166Z,10.39
2024-02-29T20:52:16.474Z,10.25
2024-02-29T20:53:13.207Z,10.21
2024-02-29T20:54:13.005Z,10.23
2024-02-29T20:55:13.162Z,10.23
2024-02-29T20:56:13.095Z,10.11
2024-02-29T20:57:13.221Z,10.18
2024-02-29T20:58:13.243Z,10.19
2024-02-29T20:59:13.127Z,10.23
2024-02-29T21:00:13.533Z,10.26
2024-02-29T21:01:13.206Z,10.31
2024-02-29T21:02:13.350Z,10.18
2024-02-29T21:03:13.254Z,10.07
2024-02-29T21:04:13.202Z,10.04
2024-02-29T21:05:13.150Z,10.04
2024-02-29T21:06:13.185Z,10.12
2024-02-29T21:07:13.203Z,10.15
2024-02-29T21:08:13.184Z,10.18
2024-02-29T21:09:13.199Z,10.18
2024-02-29T21:10:13.227Z,10.18
2024-02-29T21:11:13.882Z,10.21
2024-02-29T21:12:13.194Z,10.26
2024-02-29T21:13:15.924Z,10.32
2024-02-29T21:14:13.217Z,10.31
2024-02-29T21:15:13.255Z,10.34
2024-02-29T21:16:13.345Z,10.35
2024-02-29T21:17:13.164Z,10.36
2024-02-29T21:18:13.293Z,10.27
2024-02-29T21:19:13.240Z,10.14
2024-02-29T21:20:13.313Z,9.97
2024-02-29T21:21:14.198Z,9.94
2024-02-29T21:22:13.336Z,10.07
2024-02-29T21:23:13.114Z,10.13
2024-02-29T21:24:13.104Z,10.04
2024-02-29T21:25:13.485Z,9.86
2024-02-29T21:26:13.276Z,9.87
2024-02-29T21:27:13.262Z,9.91
2024-02-29T21:28:13.256Z,9.96
2024-02-29T21:29:13.302Z,10.03
2024-02-29T21:30:13.232Z,9.99
2024-02-29T21:31:13.277Z,9.91
2024-02-29T21:32:13.761Z,9.93
2024-02-29T21:33:13.293Z,10.02
2024-02-29T21:34:13.296Z,10.10
2024-02-29T21:35:13.213Z,10.16
2024-02-29T21:36:13.262Z,10.18
2024-02-29T21:37:13.846Z,10.08
2024-02-29T21:38:13.307Z,10.00
2024-02-29T21:39:13.911Z,10.01
2024-02-29T21:40:13.546Z,10.05
2024-02-29T21:41:13.349Z,10.16
2024-02-29T21:42:13.395Z,10.22
2024-02-29T21:43:13.334Z,10.31
2024-02-29T21:44:13.304Z,10.38
2024-02-29T21:45:13.294Z,10.29
2024-02-29T21:46:13.360Z,10.13
2024-02-29T21:47:13.352Z,10.17
2024-02-29T21:48:13.434Z,10.27
2024-02-29T21:49:13.450Z,10.34
2024-02-29T21:50:13.406Z,10.35
2024-02-29T21:51:13.347Z,10.33
2024-02-29T21:52:13.383Z,10.36
2024-02-29T21:53:13.292Z,10.40
2024-02-29T21:54:13.284Z,10.39
2024-02-29T21:55:13.456Z,10.35
2024-02-29T21:56:13.327Z,10.35
2024-02-29T21:57:15.289Z,10.22
2024-02-29T21:58:13.390Z,10.18
2024-02-29T21:59:13.329Z,10.26
2024-02-29T22:00:13.299Z,10.27
2024-02-29T22:01:13.441Z,10.29
2024-02-29T22:02:13.420Z,10.30
2024-02-29T22:03:13.305Z,10.35
2024-02-29T22:04:13.424Z,10.43
2024-02-29T22:05:13.434Z,10.43
2024-02-29T22:06:13.400Z,10.39
2024-02-29T22:07:13.428Z,10.30
2024-02-29T22:08:13.372Z,10.08
2024-02-29T22:09:13.468Z,10.09
2024-02-29T22:10:13.445Z,9.95
2024-02-29T22:11:13.315Z,9.92
2024-02-29T22:12:13.484Z,9.84
2024-02-29T22:13:13.511Z,9.89
2024-02-29T22:14:14.990Z,9.81
2024-02-29T22:15:13.243Z,9.70
2024-02-29T22:16:13.358Z,9.73
2024-02-29T22:17:13.355Z,9.79
2024-02-29T22:18:13.362Z,9.71
2024-02-29T22:19:13.368Z,9.62
2024-02-29T22:20:13.274Z,9.68
2024-02-29T22:21:13.266Z,9.69
2024-02-29T22:22:13.470Z,9.57
2024-02-29T22:23:13.285Z,9.51
2024-02-29T22:24:15.816Z,9.44
2024-02-29T22:25:13.331Z,9.50
2024-02-29T22:26:13.417Z,9.57
2024-02-29T22:27:13.392Z,9.56
2024-02-29T22:28:13.369Z,9.47
2024-02-29T22:29:13.349Z,9.46
2024-02-29T22:30:13.332Z,9.49
2024-02-29T22:31:13.480Z,9.55
2024-02-29T22:32:13.365Z,9.46
2024-02-29T22:33:13.371Z,9.48
2024-02-29T22:34:13.407Z,9.46
2024-02-29T22:35:13.413Z,9.53
2024-02-29T22:36:13.419Z,9.57
2024-02-29T22:37:14.848Z,9.67
2024-02-29T22:38:13.333Z,9.73
2024-02-29T22:39:13.310Z,9.72
2024-02-29T22:40:13.304Z,9.64
2024-02-29T22:41:13.340Z,9.57
2024-02-29T22:42:13.545Z,9.61
2024-02-29T22:43:13.574Z,9.48
2024-02-29T22:44:13.507Z,9.26
2024-02-29T22:45:13.835Z,9.30
2024-02-29T22:46:13.811Z,9.43
2024-02-29T22:47:13.645Z,9.56
2024-02-29T22:48:13.714Z,9.66
2024-02-29T22:49:13.649Z,9.67
2024-02-29T22:50:13.792Z,9.68
2024-02-29T22:51:13.786Z,9.73
2024-02-29T22:52:13.939Z,9.80
2024-02-29T22:53:13.868Z,9.69
2024-02-29T22:54:13.996Z,9.66
2024-02-29T22:55:14.037Z,9.74
2024-02-29T22:56:14.123Z,9.78
2024-02-29T22:57:14.130Z,9.80
2024-02-29T22:58:14.174Z,9.77
2024-02-29T22:59:14.030Z,9.66
2024-02-29T23:00:14.172Z,9.69
2024-02-29T23:01:14.188Z,9.75
2024-02-29T23:02:14.806Z,9.72
2024-02-29T23:03:13.988Z,9.67
2024-02-29T23:04:14.128Z,9.52
2024-02-29T23:05:14.138Z,9.60
2024-02-29T23:06:14.378Z,9.63
2024-02-29T23:07:14.460Z,9.64
2024-02-29T23:08:14.130Z,9.57
2024-02-29T23:09:14.297Z,9.60
2024-02-29T23:10:14.349Z,9.59
2024-02-29T23:11:15.029Z,9.64
2024-02-29T23:12:14.432Z,9.68
2024-02-29T23:13:14.406Z,9.73
2024-02-29T23:14:14.441Z,9.75
2024-02-29T23:15:14.684Z,9.73
2024-02-29T23:16:14.692Z,9.54
2024-02-29T23:17:14.578Z,9.43
2024-02-29T23:18:14.583Z,9.42
2024-02-29T23:19:14.582Z,9.48
2024-02-29T23:20:14.585Z,9.39
2024-02-29T23:21:14.773Z,9.40
2024-02-29T23:22:14.760Z,9.48
2024-02-29T23:23:14.665Z,9.53
2024-02-29T23:24:14.713Z,9.58
2024-02-29T23:25:14.822Z,9.57
2024-02-29T23:26:14.620Z,9.53
2024-02-29T23:27:14.793Z,9.55
2024-02-29T23:28:14.715Z,9.62
2024-02-29T23:29:14.834Z,9.61
2024-02-29T23:30:14.759Z,9.43
2024-02-29T23:31:14.756Z,9.35
2024-02-29T23:32:14.820Z,9.32
2024-02-29T23:33:14.833Z,9.17
2024-02-29T23:34:14.733Z,9.13
2024-02-29T23:35:14.739Z,9.15
2024-02-29T23:36:14.732Z,9.11
2024-02-29T23:37:14.772Z,9.16
2024-02-29T23:38:14.707Z,9.19
2024-02-29T23:39:14.823Z,9.27
2024-02-29T23:40:14.882Z,9.36
2024-02-29T23:41:14.930Z,9.37
2024-02-29T23:42:15.077Z,9.36
2024-02-29T23:43:15.070Z,9.32
2024-02-29T23:44:15.077Z,9.28
2024-02-29T23:45:15.213Z,8.94
2024-02-29T23:46:15.176Z,8.85
2024-02-29T23:47:15.175Z,8.95
2024-02-29T23:48:16.266Z,9.05
2024-02-29T23:49:15.370Z,9.06
2024-02-29T23:50:15.297Z,9.12
2024-02-29T23:51:15.369Z,9.15
2024-02-29T23:52:15.466Z,9.15
2024-02-29T23:53:15.490Z,8.98
2024-02-29T23:54:15.469Z,8.84
2024-02-29T23:55:15.592Z,8.68
2024-02-29T23:56:15.588Z,8.70
2024-02-29T23:57:15.918Z,8.77
2024-02-29T23:58:15.889Z,8.83
2024-02-29T23:59:15.785Z,8.89
